Time;durP1;ratioP1;P1;durP2;ratioP2;P2;SDS_P1;SDS_P2;PMS_P1;PMS_P2;Temp;Humidity;BMP_temperature;BMP_pressure;BME280_temperature;BME280_humidity;BME280_pressure;Samples;Min_cycle;Max_cycle;Signal;HPM_P1;HPM_P2
2023/05/28 00:00:57;;;;;;;7.80;4.88;;;;;;;15.10;77.97;93833.66;5142712;28;20038;-77
2023/05/28 00:03:23;;;;;;;12.40;5.68;;;;;;;15.07;79.12;93844.31;5142741;28;20030;-83
2023/05/28 00:05:49;;;;;;;7.57;4.93;;;;;;;15.08;79.80;93841.25;5143383;28;20023;-78
2023/05/28 00:08:15;;;;;;;8.98;5.55;;;;;;;15.09;79.55;93847.41;5143467;28;20031;-77
2023/05/28 00:10:41;;;;;;;8.00;4.88;;;;;;;15.07;79.14;93855.03;5125174;28;20050;-80
2023/05/28 00:13:06;;;;;;;10.10;5.40;;;;;;;15.05;79.48;93850.00;5124975;28;20027;-78
2023/05/28 00:15:32;;;;;;;8.82;5.95;;;;;;;15.04;79.76;93846.53;5143361;28;20120;-78
2023/05/28 00:17:57;;;;;;;13.27;6.07;;;;;;;15.03;79.62;93852.25;5125004;28;20022;-79
2023/05/28 00:20:23;;;;;;;9.07;6.88;;;;;;;14.99;79.85;93852.13;5125064;28;20015;-79
2023/05/28 00:22:48;;;;;;;8.65;5.88;;;;;;;14.97;80.31;93845.56;5143175;28;20046;-80
2023/05/28 00:25:14;;;;;;;9.10;6.00;;;;;;;14.91;81.01;93849.59;5143204;28;20574;-80
2023/05/28 00:27:39;;;;;;;9.07;6.00;;;;;;;14.85;81.62;93849.06;5143221;28;20068;-80
2023/05/28 00:30:06;;;;;;;17.70;6.32;;;;;;;14.75;82.12;93838.78;5143174;28;20308;-80
2023/05/28 00:32:31;;;;;;;9.90;6.03;;;;;;;14.64;82.30;93841.94;5124834;28;20019;-80
2023/05/28 00:34:56;;;;;;;14.05;6.57;;;;;;;14.55;81.76;93846.66;5143031;28;20027;-80
2023/05/28 00:37:22;;;;;;;13.95;5.22;;;;;;;14.45;82.07;93841.75;5125047;28;20033;-80
2023/05/28 00:39:47;;;;;;;9.85;5.13;;;;;;;14.37;82.25;93837.25;5143120;28;20357;-80
2023/05/28 00:42:13;;;;;;;9.18;4.63;;;;;;;14.24;82.46;93836.50;5142979;28;20027;-80
2023/05/28 00:44:39;;;;;;;11.52;5.47;;;;;;;14.17;82.84;93830.94;5143032;28;20294;-80
2023/05/28 00:47:05;;;;;;;9.95;5.57;;;;;;;14.11;83.37;93825.00;5143153;28;20046;-80
2023/05/28 00:49:32;;;;;;;13.57;5.38;;;;;;;14.10;82.72;93831.47;5125422;27;20030;-80
2023/05/28 00:52:00;;;;;;;11.05;5.18;;;;;;;14.16;83.03;93830.13;5146530;27;20030;-80
2023/05/28 00:54:26;;;;;;;9.80;5.88;;;;;;;14.21;84.29;93823.78;5128203;27;20257;-80
2023/05/28 00:56:57;;;;;;;9.13;5.40;;;;;;;14.26;84.43;93826.22;5146671;27;20035;-79
2023/05/28 00:59:24;;;;;;;9.65;5.43;;;;;;;14.24;82.50;93823.09;5146671;27;20026;-80
2023/05/28 01:01:49;;;;;;;11.70;5.10;;;;;;;14.19;81.25;93826.78;5146422;27;20056;-80
2023/05/28 01:04:16;;;;;;;8.88;4.97;;;;;;;14.21;81.25;93821.88;5146373;27;20023;-79
2023/05/28 01:06:43;;;;;;;7.57;4.97;;;;;;;14.27;81.32;93818.94;5145217;27;20094;-78
2023/05/28 01:09:10;;;;;;;8.40;4.97;;;;;;;14.37;81.75;93826.53;5144481;27;20030;-78
2023/05/28 01:11:39;;;;;;;8.80;5.10;;;;;;;14.47;82.90;93828.78;5144959;27;20011;-78
2023/05/28 01:14:05;;;;;;;8.45;5.47;;;;;;;14.53;83.40;93821.25;5145767;27;20023;-78
2023/05/28 01:16:32;;;;;;;8.00;4.85;;;;;;;14.55;82.87;93806.41;5145856;27;20019;-78
2023/05/28 01:18:58;;;;;;;5.18;3.78;;;;;;;14.48;80.99;93806.19;5146259;27;20030;-78
2023/05/28 01:21:27;;;;;;;8.23;4.43;;;;;;;14.43;80.96;93803.72;5127763;27;20094;-79
2023/05/28 01:23:56;;;;;;;11.35;5.43;;;;;;;14.49;81.91;93809.66;5145839;27;20031;-78
2023/05/28 01:26:22;;;;;;;9.48;5.20;;;;;;;14.54;82.92;93791.44;5127165;27;20019;-78
2023/05/28 01:28:48;;;;;;;6.65;4.47;;;;;;;14.48;81.83;93792.78;5146100;27;20025;-79
2023/05/28 01:31:15;;;;;;;8.68;5.60;;;;;;;14.34;81.44;93800.41;5145743;27;20029;-79
2023/05/28 01:33:43;;;;;;;5.30;3.90;;;;;;;14.29;82.35;93800.63;5144971;27;20022;-79
2023/05/28 01:36:17;;;;;;;9.15;4.85;;;;;;;14.24;82.63;93805.09;5127303;27;20019;-78
2023/05/28 01:38:46;;;;;;;8.18;5.15;;;;;;;14.32;83.51;93797.28;5145830;27;20027;-78
2023/05/28 01:41:13;;;;;;;9.52;5.50;;;;;;;14.37;84.47;93805.09;5145546;27;20019;-78
2023/05/28 01:43:41;;;;;;;8.18;5.18;;;;;;;14.38;84.63;93809.34;5145699;27;20011;-78
2023/05/28 01:46:06;;;;;;;7.97;5.10;;;;;;;14.38;84.94;93803.97;5145442;27;20014;-78
2023/05/28 01:48:33;;;;;;;10.32;5.25;;;;;;;14.37;85.55;93802.41;5145388;27;20019;-77
2023/05/28 01:50:59;;;;;;;7.57;5.28;;;;;;;14.39;84.90;93802.84;5127120;27;20216;-77
2023/05/28 01:53:24;;;;;;;8.27;5.93;;;;;;;14.40;85.21;93804.41;5145618;27;20035;-77
2023/05/28 01:55:50;;;;;;;9.43;5.18;;;;;;;14.41;84.35;93803.28;5145495;27;20305;-77
2023/05/28 01:58:16;;;;;;;7.20;4.90;;;;;;;14.40;83.79;93801.75;5145239;27;20064;-77
2023/05/28 02:00:59;;;;;;;7.47;4.95;;;;;;;14.39;82.78;93792.94;5144827;27;20019;-77
2023/05/28 02:03:24;;;;;;;13.43;4.85;;;;;;;14.36;82.08;93793.59;5145489;27;20019;-78
2023/05/28 02:05:50;;;;;;;8.38;4.00;;;;;;;14.40;82.23;93799.06;5145185;27;20026;-80
2023/05/28 02:08:15;;;;;;;7.38;4.10;;;;;;;14.41;81.56;93792.56;5145090;27;20019;-80
2023/05/28 02:10:42;;;;;;;6.72;3.92;;;;;;;14.43;80.74;93801.03;5145142;27;20023;-80
2023/05/28 02:13:07;;;;;;;18.35;4.55;;;;;;;14.42;81.12;93802.19;5144953;27;20047;-80
2023/05/28 02:15:33;;;;;;;9.25;3.95;;;;;;;14.44;82.11;93797.25;5144962;27;20348;-80
2023/05/28 02:17:58;;;;;;;8.13;4.07;;;;;;;14.45;80.91;93796.16;5145004;27;20212;-79
2023/05/28 02:20:24;;;;;;;7.32;4.07;;;;;;;14.50;80.58;93805.88;5145031;27;20086;-80
2023/05/28 02:22:49;;;;;;;10.18;4.35;;;;;;;14.50;80.23;93801.28;5144494;27;20079;-79
2023/05/28 02:25:15;;;;;;;5.53;3.88;;;;;;;14.57;80.32;93800.72;5144962;27;20027;-79
2023/05/28 02:27:40;;;;;;;5.88;4.22;;;;;;;14.61;82.13;93802.41;5144949;27;20030;-79
2023/05/28 02:30:07;;;;;;;10.10;4.53;;;;;;;14.60;81.79;93806.19;5144673;27;20347;-81
2023/05/28 02:32:32;;;;;;;8.90;4.95;;;;;;;14.52;82.38;93809.00;5126207;27;20216;-79
2023/05/28 02:34:57;;;;;;;7.88;5.18;;;;;;;14.44;82.70;93808.00;5126348;27;20025;-77
2023/05/28 02:37:23;;;;;;;11.85;4.72;;;;;;;14.40;83.24;93807.09;5144930;27;20238;-81
2023/05/28 02:39:50;;;;;;;9.10;5.15;;;;;;;14.40;84.01;93802.50;5144688;27;20026;-81
2023/05/28 02:42:15;;;;;;;9.38;4.10;;;;;;;14.37;83.91;93802.41;5144516;27;20029;-80
2023/05/28 02:44:41;;;;;;;5.63;3.67;;;;;;;14.33;83.61;93802.31;5144674;27;20023;-80
2023/05/28 02:47:06;;;;;;;7.28;4.70;;;;;;;14.33;83.88;93804.19;5144783;27;20053;-84
2023/05/28 02:49:34;;;;;;;8.68;4.22;;;;;;;14.32;81.69;93797.28;5144280;27;20039;-80
2023/05/28 02:52:00;;;;;;;8.20;4.28;;;;;;;14.31;82.28;93801.06;5126247;27;20019;-85
2023/05/28 02:54:25;;;;;;;8.45;4.13;;;;;;;14.28;82.52;93796.41;5144517;27;20038;-79
2023/05/28 02:56:51;;;;;;;7.32;4.32;;;;;;;14.26;82.72;93802.09;5126046;27;20077;-79
2023/05/28 02:59:17;;;;;;;8.00;3.70;;;;;;;14.30;82.86;93804.88;5144189;27;20015;-80
2023/05/28 03:01:42;;;;;;;7.03;3.88;;;;;;;14.35;83.09;93812.69;5144241;27;20019;-79
2023/05/28 03:04:08;;;;;;;7.78;3.83;;;;;;;14.37;82.14;93815.81;5144117;27;20041;-79
2023/05/28 03:06:33;;;;;;;6.00;4.00;;;;;;;14.36;82.65;93803.53;5143915;27;20015;-80
2023/05/28 03:08:59;;;;;;;7.00;4.35;;;;;;;14.37;82.47;93807.75;5144050;27;20059;-79
2023/05/28 03:11:25;;;;;;;6.40;3.75;;;;;;;14.37;82.17;93802.41;5144075;27;20273;-79
2023/05/28 03:13:50;;;;;;;9.02;3.75;;;;;;;14.34;82.12;93795.06;5124867;27;20015;-80
2023/05/28 03:16:16;;;;;;;7.68;4.05;;;;;;;14.33;82.79;93805.00;5125672;27;20023;-79
2023/05/28 03:18:41;;;;;;;6.38;3.72;;;;;;;14.38;82.33;93810.13;5143909;27;20071;-78
2023/05/28 03:21:07;;;;;;;10.85;3.80;;;;;;;14.39;81.41;93810.88;5125638;27;20039;-78
2023/05/28 03:23:32;;;;;;;6.05;3.90;;;;;;;14.43;80.63;93811.78;5125194;27;20292;-79
2023/05/28 03:25:58;;;;;;;7.05;3.90;;;;;;;14.51;80.09;93805.53;5125337;27;20019;-78
2023/05/28 03:28:23;;;;;;;10.70;3.67;;;;;;;14.60;80.47;93808.88;5125599;28;20030;-79
2023/05/28 03:30:48;;;;;;;9.80;4.63;;;;;;;14.70;80.59;93810.31;5143524;27;20305;-79
2023/05/28 03:33:14;;;;;;;7.53;4.40;;;;;;;14.76;81.46;93816.22;5125184;27;20043;-79
2023/05/28 03:35:39;;;;;;;10.85;3.88;;;;;;;14.82;81.93;93814.88;5143808;27;20249;-78
2023/05/28 03:38:05;;;;;;;6.68;4.07;;;;;;;14.81;80.83;93811.38;5143821;28;20186;-78
2023/05/28 03:40:31;;;;;;;6.05;3.85;;;;;;;14.82;80.35;93820.22;5143547;28;20027;-78
2023/05/28 03:42:56;;;;;;;6.45;4.28;;;;;;;14.89;80.98;93823.09;5143817;28;20046;-79
2023/05/28 03:45:21;;;;;;;7.35;3.83;;;;;;;14.90;80.96;93816.63;5125364;28;20102;-80
2023/05/28 03:47:47;;;;;;;11.40;4.22;;;;;;;14.87;80.36;93808.47;5125189;28;20019;-80
2023/05/28 03:50:12;;;;;;;8.98;4.30;;;;;;;14.94;81.31;93806.78;5143445;28;20054;-80
2023/05/28 03:52:38;;;;;;;8.07;3.95;;;;;;;15.02;81.57;93821.16;5143624;28;20019;-80
2023/05/28 03:55:04;;;;;;;6.68;3.97;;;;;;;15.05;81.53;93815.88;5143506;28;20022;-79
2023/05/28 03:57:29;;;;;;;9.48;4.93;;;;;;;15.10;82.40;93822.13;5143352;28;20042;-80
2023/05/28 03:59:56;;;;;;;8.15;4.40;;;;;;;15.13;83.19;93824.91;5143575;28;20270;-80
2023/05/28 04:02:22;;;;;;;5.57;3.95;;;;;;;15.13;82.26;93819.53;5143481;28;20381;-79
2023/05/28 04:04:48;;;;;;;12.88;5.25;;;;;;;15.13;81.36;93819.53;5143449;28;20043;-79
2023/05/28 04:07:14;;;;;;;5.63;4.20;;;;;;;15.17;81.17;93822.34;5143325;28;20026;-80
2023/05/28 04:09:40;;;;;;;7.13;4.32;;;;;;;15.20;79.31;93816.25;5124959;28;20090;-79
2023/05/28 04:12:06;;;;;;;9.68;4.20;;;;;;;15.19;79.53;93818.19;5143346;28;20019;-80
2023/05/28 04:14:31;;;;;;;11.25;4.90;;;;;;;15.26;80.74;93817.56;5142959;28;20225;-80
2023/05/28 04:16:57;;;;;;;10.88;4.85;;;;;;;15.34;81.13;93824.69;5143222;28;20035;-79
2023/05/28 04:19:23;;;;;;;7.50;4.40;;;;;;;15.34;81.17;93822.00;5143583;28;20019;-80
2023/05/28 04:21:49;;;;;;;6.88;4.70;;;;;;;15.38;80.36;93832.84;5143299;28;20076;-78
2023/05/28 04:24:14;;;;;;;10.73;4.43;;;;;;;15.43;79.64;93832.63;5144837;27;20337;-78
2023/05/28 04:26:40;;;;;;;8.38;4.80;;;;;;;15.47;79.58;93822.75;5147064;27;20034;-78
2023/05/28 04:29:06;;;;;;;10.65;4.93;;;;;;;15.53;79.95;93823.25;5128854;27;20038;-78
2023/05/28 04:31:31;;;;;;;7.22;5.55;;;;;;;15.58;79.36;93823.00;5147047;27;20019;-78
2023/05/28 04:33:57;;;;;;;10.10;4.88;;;;;;;15.56;79.01;93828.72;5146849;27;20023;-78
2023/05/28 04:36:28;;;;;;;6.80;4.50;;;;;;;15.64;79.40;93818.94;5147447;27;20034;-80
2023/05/28 04:38:56;;;;;;;10.00;4.63;;;;;;;15.67;79.42;93833.59;5147197;27;20023;-79
2023/05/28 04:41:23;;;;;;;8.15;5.05;;;;;;;15.73;78.38;93832.22;5147151;27;20198;-79
2023/05/28 04:43:49;;;;;;;12.27;4.65;;;;;;;15.73;78.17;93838.38;5146912;27;20376;-79
2023/05/28 04:46:14;;;;;;;6.80;4.50;;;;;;;15.77;78.05;93833.91;5146907;27;20023;-79
2023/05/28 04:48:40;;;;;;;7.53;5.05;;;;;;;15.76;77.91;93835.03;5146587;27;20026;-81
2023/05/28 04:51:05;;;;;;;8.27;4.97;;;;;;;15.82;77.69;93828.25;5146673;27;20023;-80
2023/05/28 04:53:31;;;;;;;9.40;5.60;;;;;;;15.88;78.52;93836.84;5146689;27;20060;-80
2023/05/28 04:55:56;;;;;;;11.10;6.53;;;;;;;15.92;78.55;93850.38;5128283;27;20034;-79
2023/05/28 04:58:22;;;;;;;7.88;5.35;;;;;;;15.97;78.99;93842.03;5146660;27;20026;-80
2023/05/28 05:00:47;;;;;;;8.98;5.22;;;;;;;16.00;79.00;93846.75;5146549;27;20037;-81
2023/05/28 05:03:14;;;;;;;12.00;5.15;;;;;;;16.01;76.03;93837.53;5146610;27;20042;-80
2023/05/28 05:05:40;;;;;;;12.45;5.28;;;;;;;16.04;76.61;93836.84;5146315;27;20015;-80
2023/05/28 05:08:06;;;;;;;8.05;5.60;;;;;;;16.05;76.87;93833.03;5146627;27;20094;-80
2023/05/28 05:10:32;;;;;;;8.07;5.18;;;;;;;16.10;77.22;93823.91;5146243;27;20094;-80
2023/05/28 05:12:59;;;;;;;7.82;4.85;;;;;;;16.09;76.32;93833.88;5146165;27;20019;-80
2023/05/28 05:15:24;;;;;;;12.18;5.32;;;;;;;16.15;76.76;93824.44;5146238;27;20027;-81
2023/05/28 05:17:51;;;;;;;7.43;4.95;;;;;;;16.20;76.85;93840.31;5146406;27;20026;-80
2023/05/28 05:20:17;;;;;;;13.43;4.93;;;;;;;16.21;76.58;93839.16;5146247;27;20094;-80
2023/05/28 05:22:43;;;;;;;9.70;5.35;;;;;;;16.22;77.29;93829.97;5145893;27;20156;-80
2023/05/28 05:25:09;;;;;;;8.32;5.10;;;;;;;16.23;78.21;93828.84;5146098;27;20036;-80
2023/05/28 05:27:36;;;;;;;7.50;4.78;;;;;;;16.23;77.48;93822.69;5145884;27;20312;-82
2023/05/28 05:30:03;;;;;;;7.32;5.20;;;;;;;16.20;77.49;93821.47;5145810;27;20027;-82
2023/05/28 05:32:28;;;;;;;12.18;5.53;;;;;;;16.22;78.73;93827.28;5127520;27;20026;-82
2023/05/28 05:34:53;;;;;;;9.35;4.90;;;;;;;16.23;77.21;93823.47;5144932;27;20019;-81
2023/05/28 05:37:20;;;;;;;7.13;4.70;;;;;;;16.17;76.54;93824.84;5126779;27;20015;-83
2023/05/28 05:39:45;;;;;;;8.52;4.32;;;;;;;16.18;76.76;93826.44;5127045;27;20027;-80
2023/05/28 05:42:11;;;;;;;10.38;5.35;;;;;;;16.27;77.11;93828.16;5127565;27;20049;-79
2023/05/28 05:44:36;;;;;;;8.93;5.30;;;;;;;16.37;77.39;93823.00;5127416;27;20017;-79
2023/05/28 05:47:02;;;;;;;10.10;4.82;;;;;;;16.47;75.64;93820.94;5145519;27;20040;-79
2023/05/28 05:49:27;;;;;;;8.02;4.57;;;;;;;16.46;73.98;93812.06;5145705;27;20015;-79
2023/05/28 05:51:53;;;;;;;9.98;5.13;;;;;;;16.48;73.69;93815.16;5145742;27;20059;-80
2023/05/28 05:54:18;;;;;;;6.78;4.15;;;;;;;16.43;71.54;93826.22;5145447;27;20018;-80
2023/05/28 05:56:43;;;;;;;5.57;3.80;;;;;;;16.42;71.63;93821.94;5145203;27;20011;-79
2023/05/28 05:59:09;;;;;;;6.97;4.72;;;;;;;16.39;74.21;93822.66;5145453;27;20022;-80
2023/05/28 06:01:35;;;;;;;7.30;3.90;;;;;;;16.31;72.22;93829.00;5144886;27;20015;-80
2023/05/28 06:04:00;;;;;;;8.45;3.97;;;;;;;16.31;72.04;93823.63;5143352;27;20022;-80
2023/05/28 06:06:26;;;;;;;8.52;4.30;;;;;;;16.37;72.63;93823.00;5143341;27;20076;-79
2023/05/28 06:08:52;;;;;;;8.60;4.63;;;;;;;16.45;72.79;93813.19;5144984;27;20019;-80
2023/05/28 06:11:18;;;;;;;9.82;4.88;;;;;;;16.52;73.95;93824.09;5144419;27;20023;-79
2023/05/28 06:13:43;;;;;;;7.47;4.15;;;;;;;16.53;72.95;93824.91;5144779;27;20094;-79
2023/05/28 06:16:10;;;;;;;7.38;5.07;;;;;;;16.53;72.74;93825.69;5145023;27;20303;-81
2023/05/28 06:18:36;;;;;;;8.00;4.75;;;;;;;16.57;73.99;93826.53;5145042;27;20052;-80
2023/05/28 06:21:03;;;;;;;8.27;4.57;;;;;;;16.56;72.84;93835.72;5144904;27;20027;-79
2023/05/28 06:23:29;;;;;;;6.63;4.07;;;;;;;16.50;71.59;93841.72;5144840;27;20046;-79
2023/05/28 06:25:54;;;;;;;8.43;4.00;;;;;;;16.54;70.26;93843.38;5145040;27;20027;-79
2023/05/28 06:28:20;;;;;;;6.15;3.92;;;;;;;16.60;70.74;93835.81;5144011;27;20356;-79
2023/05/28 06:30:45;;;;;;;7.55;3.97;;;;;;;16.68;70.96;93847.50;5144709;27;20087;-79
2023/05/28 06:33:11;;;;;;;8.45;3.85;;;;;;;16.81;71.30;93841.69;5144667;27;20026;-79
2023/05/28 06:35:36;;;;;;;14.60;4.20;;;;;;;16.90;71.36;93838.78;5144754;27;20023;-84
2023/05/28 06:38:02;;;;;;;8.63;3.95;;;;;;;16.96;71.21;93837.38;5144765;27;20052;-84
2023/05/28 06:40:28;;;;;;;9.70;5.40;;;;;;;16.94;70.28;93839.63;5144551;27;20015;-85
2023/05/28 06:42:53;;;;;;;6.78;4.20;;;;;;;16.95;71.10;93837.72;5126378;27;20022;-85
2023/05/28 06:45:19;;;;;;;7.90;3.90;;;;;;;16.96;71.80;93845.44;5144439;27;20038;-85
2023/05/28 06:47:45;;;;;;;9.48;4.90;;;;;;;16.95;72.23;93846.56;5144547;27;20060;-85
2023/05/28 06:50:11;;;;;;;8.90;5.82;;;;;;;16.92;72.39;93849.97;5144471;27;20019;-85
2023/05/28 06:52:37;;;;;;;9.90;5.72;;;;;;;16.95;72.45;93856.56;5126048;27;20026;-85
2023/05/28 06:55:02;;;;;;;11.63;5.00;;;;;;;16.92;72.78;93847.28;5144269;27;20030;-85
2023/05/28 06:57:28;;;;;;;7.25;4.78;;;;;;;16.95;74.19;93853.88;5144548;27;20019;-86
2023/05/28 06:59:54;;;;;;;6.97;4.40;;;;;;;16.95;74.89;93857.34;5126317;27;20313;-85
2023/05/28 07:02:19;;;;;;;7.88;4.28;;;;;;;16.90;74.34;93848.78;5144481;27;20339;-84
2023/05/28 07:04:45;;;;;;;8.52;5.03;;;;;;;16.90;73.56;93846.09;5126474;27;20031;-83
2023/05/28 07:07:10;;;;;;;8.05;5.90;;;;;;;16.91;74.37;93853.78;5125787;27;20027;-82
2023/05/28 07:09:36;;;;;;;12.13;5.22;;;;;;;16.98;75.25;93850.47;5144176;27;20046;-82
2023/05/28 07:12:01;;;;;;;7.45;4.70;;;;;;;17.03;75.08;93855.56;5143943;27;20022;-82
2023/05/28 07:14:27;;;;;;;8.18;4.93;;;;;;;17.05;75.44;93859.47;5144029;27;20152;-82
2023/05/28 07:16:52;;;;;;;13.63;5.30;;;;;;;17.08;75.22;93854.53;5143899;27;20038;-82
2023/05/28 07:19:17;;;;;;;9.52;4.80;;;;;;;17.12;75.98;93858.06;5144064;27;20027;-80
2023/05/28 07:21:44;;;;;;;15.70;6.65;;;;;;;17.18;75.79;93843.19;5125601;27;20263;-81
2023/05/28 07:24:10;;;;;;;9.50;4.30;;;;;;;17.23;75.96;93849.06;5125369;27;20031;-82
2023/05/28 07:26:37;;;;;;;8.25;4.45;;;;;;;17.23;74.17;93842.91;5143441;27;20047;-81
2023/05/28 07:29:02;;;;;;;6.00;3.88;;;;;;;17.18;70.96;93838.56;5143855;27;20030;-82
2023/05/28 07:31:28;;;;;;;8.45;4.70;;;;;;;17.14;72.40;93836.97;5144135;27;20015;-83
2023/05/28 07:33:53;;;;;;;7.93;3.60;;;;;;;17.17;73.64;93844.31;5143907;27;20339;-84
2023/05/28 07:36:19;;;;;;;9.82;4.45;;;;;;;17.11;73.47;93837.66;5143659;27;20019;-84
2023/05/28 07:38:47;;;;;;;7.10;4.13;;;;;;;17.14;72.02;93843.13;5143795;28;20019;-83
2023/05/28 07:41:12;;;;;;;8.18;4.47;;;;;;;17.21;71.68;93845.94;5144204;28;20019;-86
2023/05/28 07:43:38;;;;;;;9.18;4.40;;;;;;;17.32;71.55;93839.97;5126833;28;20103;-85
2023/05/28 07:46:03;;;;;;;6.45;3.78;;;;;;;17.40;70.61;93836.28;5144225;28;20190;-85
2023/05/28 07:48:28;;;;;;;9.02;4.38;;;;;;;17.51;70.76;93829.19;5126162;28;20019;-85
2023/05/28 07:50:54;;;;;;;5.82;3.72;;;;;;;17.64;71.68;93832.50;5144327;28;20086;-86
2023/05/28 07:53:19;;;;;;;7.18;3.92;;;;;;;17.76;72.68;93818.84;5126089;28;20019;-88
2023/05/28 07:55:45;;;;;;;7.40;4.10;;;;;;;17.82;70.29;93830.88;5144158;28;20035;-87
2023/05/28 07:58:12;;;;;;;5.50;3.80;;;;;;;17.83;69.86;93826.31;5144621;27;20050;-86
2023/05/28 08:00:39;;;;;;;8.50;4.07;;;;;;;17.68;69.31;93825.25;5148277;27;20027;-87
2023/05/28 08:03:05;;;;;;;10.00;4.55;;;;;;;17.59;69.70;93824.72;5148473;27;20018;-87
2023/05/28 08:05:31;;;;;;;6.18;4.50;;;;;;;17.60;70.54;93826.25;5148467;27;20091;-86
2023/05/28 08:07:57;;;;;;;8.40;4.60;;;;;;;17.43;69.44;93820.19;5129996;27;20019;-86
2023/05/28 08:10:22;;;;;;;6.45;4.03;;;;;;;17.41;70.06;93825.16;5147780;27;20022;-84
2023/05/28 08:12:48;;;;;;;5.63;4.03;;;;;;;17.35;70.04;93821.19;5147366;27;20134;-84
2023/05/28 08:15:13;;;;;;;10.00;4.40;;;;;;;17.27;70.91;93824.88;5147603;27;20050;-84
2023/05/28 08:17:39;;;;;;;7.93;4.00;;;;;;;17.29;72.17;93828.00;5147856;27;20038;-85
2023/05/28 08:20:06;;;;;;;5.25;3.55;;;;;;;17.39;72.62;93818.56;5147979;27;20023;-83
2023/05/28 08:22:31;;;;;;;6.53;3.17;;;;;;;17.43;72.74;93833.66;5149264;27;20042;-85
2023/05/28 08:24:57;;;;;;;8.07;3.60;;;;;;;17.52;73.60;93829.97;5148015;27;20071;-85
2023/05/28 08:27:22;;;;;;;6.60;2.88;;;;;;;17.57;72.25;93829.69;5147882;27;20049;-84
2023/05/28 08:29:48;;;;;;;6.05;3.65;;;;;;;17.59;72.44;93833.56;5129496;27;20019;-84
2023/05/28 08:32:13;;;;;;;6.05;3.92;;;;;;;17.70;72.60;93831.06;5147410;27;20213;-83
2023/05/28 08:34:39;;;;;;;5.00;2.97;;;;;;;17.80;70.73;93827.75;5147624;27;20072;-83
2023/05/28 08:37:06;;;;;;;9.38;4.43;;;;;;;18.06;70.12;93830.91;5147461;27;20382;-84
2023/05/28 08:39:32;;;;;;;10.63;3.95;;;;;;;18.15;69.40;93831.44;5147646;27;20027;-87
2023/05/28 08:41:57;;;;;;;18.23;7.05;;;;;;;18.28;68.24;93835.50;5129251;27;20127;-86
2023/05/28 08:44:23;;;;;;;13.40;5.47;;;;;;;18.28;67.88;93827.41;5147438;27;20251;-85
2023/05/28 08:46:50;;;;;;;11.60;4.55;;;;;;;18.33;68.50;93831.72;5128796;27;20022;-85
2023/05/28 08:49:18;;;;;;;4.25;2.70;;;;;;;18.54;65.86;93831.25;5147895;27;20026;-86
2023/05/28 08:51:47;;;;;;;6.45;2.80;;;;;;;18.65;65.57;93827.56;5131283;27;20027;-83
2023/05/28 08:54:14;;;;;;;5.85;3.10;;;;;;;18.63;65.57;93824.44;5146834;27;20034;-80
2023/05/28 08:56:40;;;;;;;6.45;2.80;;;;;;;18.68;65.98;93823.34;5128538;27;20090;-81
2023/05/28 08:59:06;;;;;;;6.05;2.80;;;;;;;18.97;66.85;93835.34;5146795;27;20030;-81
2023/05/28 09:01:33;;;;;;;5.28;2.85;;;;;;;19.27;64.50;93821.03;5146976;27;20019;-80
2023/05/28 09:03:58;;;;;;;5.38;2.25;;;;;;;19.56;63.78;93832.13;5128358;27;20023;-81
2023/05/28 09:06:25;;;;;;;4.75;2.75;;;;;;;19.84;61.74;93818.94;5128516;27;20042;-80
2023/05/28 09:08:51;;;;;;;7.05;2.72;;;;;;;20.02;60.17;93823.72;5128391;27;20023;-78
2023/05/28 09:11:18;;;;;;;3.47;2.08;;;;;;;20.06;58.60;93827.25;5127014;27;20240;-79
2023/05/28 09:13:45;;;;;;;8.35;3.15;;;;;;;19.83;59.85;93824.72;5146391;27;20031;-79
2023/05/28 09:16:20;;;;;;;10.65;3.40;;;;;;;19.75;61.52;93815.00;5146394;27;20335;-85
2023/05/28 09:18:48;;;;;;;5.00;2.67;;;;;;;19.77;61.36;93821.56;5144689;27;20039;-81
2023/05/28 09:21:14;;;;;;;4.13;2.15;;;;;;;19.58;59.80;93816.31;5127451;27;20038;-82
2023/05/28 09:23:39;;;;;;;10.00;2.78;;;;;;;19.48;60.06;93811.59;5145404;27;20059;-82
2023/05/28 09:26:09;;;;;;;8.05;2.88;;;;;;;19.43;60.59;93808.06;5126925;27;20090;-82
2023/05/28 09:28:35;;;;;;;5.25;2.47;;;;;;;19.37;60.50;93817.66;5128086;27;20090;-82
2023/05/28 09:31:05;;;;;;;15.85;3.30;;;;;;;19.10;62.19;93814.28;5144740;27;20015;-82
2023/05/28 09:33:35;;;;;;;5.95;3.03;;;;;;;18.77;61.66;93825.81;5144033;27;20023;-82
2023/05/28 09:36:02;;;;;;;11.90;2.47;;;;;;;18.40;63.65;93815.66;5144387;27;20027;-82
2023/05/28 09:38:41;;;;;;;13.90;2.70;;;;;;;18.30;64.29;93817.03;5144285;27;20019;-82
2023/05/28 09:41:23;;;;;;;9.35;2.80;;;;;;;18.27;64.47;93820.44;5144499;27;20128;-82
2023/05/28 09:44:02;;;;;;;5.60;3.33;;;;;;;18.16;64.61;93817.59;5125949;27;20015;-82
2023/05/28 09:46:29;;;;;;;6.97;3.35;;;;;;;18.03;64.06;93822.41;5145709;27;20027;-82
2023/05/28 09:48:55;;;;;;;8.77;3.50;;;;;;;17.96;65.04;93827.69;5146217;27;20019;-82
2023/05/28 09:51:25;;;;;;;10.43;3.58;;;;;;;17.91;64.50;93827.19;5145984;27;20202;-82
2023/05/28 09:53:56;;;;;;;9.45;3.55;;;;;;;17.79;65.64;93822.75;5127433;27;20027;-82
2023/05/28 09:56:23;;;;;;;13.35;5.45;;;;;;;17.73;66.18;93822.25;5145759;27;20368;-82
2023/05/28 09:58:53;;;;;;;9.60;4.13;;;;;;;17.77;66.25;93830.41;5145659;27;20138;-82
2023/05/28 10:01:23;;;;;;;8.10;3.72;;;;;;;17.79;65.84;93828.91;5145511;27;20313;-82
2023/05/28 10:04:09;;;;;;;9.45;4.15;;;;;;;17.81;66.67;93826.63;5145633;27;20034;-83
2023/05/28 10:06:37;;;;;;;7.45;3.45;;;;;;;17.78;67.31;93840.06;5145203;27;20031;-83
2023/05/28 10:09:04;;;;;;;5.70;3.60;;;;;;;17.82;67.04;93843.59;5145707;27;20033;-83
2023/05/28 10:11:39;;;;;;;9.77;3.47;;;;;;;17.83;66.43;93840.56;5145594;27;20220;-83
2023/05/28 10:14:06;;;;;;;8.10;3.22;;;;;;;17.84;66.36;93834.03;5145272;27;20046;-83
2023/05/28 10:16:32;;;;;;;16.35;4.18;;;;;;;17.82;67.19;93832.81;5145214;27;20369;-82
2023/05/28 10:18:57;;;;;;;15.60;3.85;;;;;;;17.81;67.23;93831.25;5127070;27;20023;-82
2023/05/28 10:21:24;;;;;;;6.45;3.45;;;;;;;17.87;66.46;93829.06;5145273;27;20084;-83
2023/05/28 10:23:50;;;;;;;9.20;3.90;;;;;;;17.84;67.21;93828.63;5145127;27;20043;-83
2023/05/28 10:26:15;;;;;;;14.38;3.95;;;;;;;17.91;67.48;93830.69;5127158;27;20031;-83
2023/05/28 10:28:42;;;;;;;12.18;3.88;;;;;;;17.98;67.17;93827.31;5145163;27;20054;-83
2023/05/28 10:31:10;;;;;;;9.55;4.28;;;;;;;18.03;66.16;93840.50;5144968;27;20027;-83
2023/05/28 10:33:40;;;;;;;15.13;3.38;;;;;;;18.11;66.37;93831.38;5144831;27;20126;-83
2023/05/28 10:36:11;;;;;;;8.10;3.45;;;;;;;18.31;65.13;93826.69;5126682;27;20027;-82
2023/05/28 10:38:44;;;;;;;6.18;3.47;;;;;;;18.54;63.93;93823.16;5144852;27;20019;-82
2023/05/28 10:41:10;;;;;;;11.65;3.75;;;;;;;18.84;63.86;93820.50;5144688;27;20098;-82
2023/05/28 10:43:39;;;;;;;9.70;3.42;;;;;;;18.92;62.52;93824.84;5144803;27;20023;-82
2023/05/28 10:46:23;;;;;;;13.70;4.18;;;;;;;19.02;61.45;93816.09;5144792;27;20023;-83
2023/05/28 10:49:12;;;;;;;6.40;3.67;;;;;;;19.01;61.10;93814.56;5144791;27;20105;-82
2023/05/28 10:52:00;;;;;;;11.77;4.40;;;;;;;19.27;60.97;93826.44;5144793;27;20019;-82
2023/05/28 10:54:37;;;;;;;10.80;3.85;;;;;;;19.45;60.10;93821.22;5126396;27;20023;-82
2023/05/28 10:57:13;;;;;;;8.52;3.92;;;;;;;19.64;60.00;93817.53;5145115;27;20027;-81
2023/05/28 10:59:46;;;;;;;8.75;4.03;;;;;;;19.74;59.16;93811.53;5144755;27;20330;-83
2023/05/28 11:02:16;;;;;;;14.10;3.47;;;;;;;19.82;58.91;93806.94;5144585;27;20085;-82
2023/05/28 11:04:41;;;;;;;6.22;3.17;;;;;;;19.88;58.75;93800.03;5144732;27;20335;-88
2023/05/28 11:07:07;;;;;;;5.57;3.15;;;;;;;20.03;58.28;93795.53;5126980;27;20022;-89
2023/05/28 11:09:33;;;;;;;10.43;4.57;;;;;;;20.15;58.63;93792.53;5145434;27;20015;-87
2023/05/28 11:12:01;;;;;;;9.77;3.58;;;;;;;20.51;58.97;93792.75;5144817;27;20258;-90
2023/05/28 11:14:35;;;;;;;6.32;3.65;;;;;;;20.71;56.32;93795.25;5126619;27;20046;-87
2023/05/28 11:17:00;;;;;;;6.93;3.83;;;;;;;20.83;56.25;93789.50;5145155;27;20075;-88
2023/05/28 11:19:26;;;;;;;7.78;3.88;;;;;;;20.98;54.74;93788.38;5126609;27;20166;-87
2023/05/28 11:21:52;;;;;;;8.88;3.72;;;;;;;21.11;54.67;93785.38;5145281;27;20247;-87
2023/05/28 11:24:18;;;;;;;8.25;3.65;;;;;;;21.33;53.22;93787.00;5126159;27;20042;-87
2023/05/28 11:26:43;;;;;;;6.50;3.75;;;;;;;21.35;53.23;93798.22;5144663;27;20216;-86
2023/05/28 11:29:10;;;;;;;11.18;5.10;;;;;;;21.43;53.37;93793.59;5144358;27;20217;-87